Time;durP1;ratioP1;P1;durP2;ratioP2;P2;SDS_P1;SDS_P2;PMS_P1;PMS_P2;Temp;Humidity;BMP_temperature;BMP_pressure;BME280_temperature;BME280_humidity;BME280_pressure;Samples;Min_cycle;Max_cycle;Signal;HPM_P1;HPM_P2
2022/01/14 00:00:50;;;;;;;1999.90;999.90;;;1.70;99.90;;;;;;5074185;28;20445;-71
2022/01/14 00:03:17;;;;;;;1999.90;999.90;;;1.90;99.90;;;;;;5074115;28;20454;-71
2022/01/14 00:05:45;;;;;;;1999.90;999.90;;;2.50;99.90;;;;;;5082478;28;20476;-71
2022/01/14 00:08:12;;;;;;;1999.90;999.90;;;3.20;99.90;;;;;;5094522;28;20502;-71
2022/01/14 00:10:40;;;;;;;1999.90;999.90;;;3.50;99.90;;;;;;5075667;28;20502;-71
2022/01/14 00:13:16;;;;;;;1999.90;999.90;;;3.70;99.90;;;;;;5073718;28;20826;-71
2022/01/14 00:15:43;;;;;;;1999.90;999.90;;;3.80;99.90;;;;;;5091390;28;20479;-72
2022/01/14 00:18:10;;;;;;;1999.90;999.90;;;3.80;99.90;;;;;;5094087;28;20492;-71
2022/01/14 00:20:36;;;;;;;1999.90;999.90;;;3.60;99.90;;;;;;5076592;28;20500;-72
2022/01/14 00:23:06;;;;;;;1999.90;999.90;;;3.30;99.90;;;;;;5073632;28;20445;-72
2022/01/14 00:33:45;;;;;;;1999.90;999.90;;;3.60;99.90;;;;;;5055804;28;20422;-71
2022/01/14 00:36:11;;;;;;;1999.90;999.90;;;3.40;99.90;;;;;;5084018;28;20984;-71
2022/01/14 00:38:39;;;;;;;1999.90;999.90;;;3.30;99.90;;;;;;5073088;28;20938;-71
2022/01/14 00:41:06;;;;;;;1999.90;999.90;;;3.10;99.90;;;;;;5093192;28;20498;-71
2022/01/14 00:43:32;;;;;;;1999.90;999.90;;;3.10;99.90;;;;;;5090284;28;20490;-71
2022/01/14 00:45:59;;;;;;;1999.90;999.90;;;3.10;99.90;;;;;;5091736;28;20464;-73
2022/01/14 00:48:26;;;;;;;1999.90;999.90;;;3.40;99.90;;;;;;5083308;28;20575;-71
2022/01/14 00:50:52;;;;;;;1999.90;999.90;;;3.60;99.90;;;;;;5073016;28;20445;-71
2022/01/14 00:53:19;;;;;;;1999.90;999.90;;;3.80;99.90;;;;;;5080822;28;20862;-71
2022/01/14 00:55:58;;;;;;;1999.90;999.90;;;4.00;99.90;;;;;;5093015;28;20593;-71
2022/01/14 01:01:09;;;;;;;1999.90;999.90;;;4.10;99.90;;;;;;5072870;28;20423;-71
2022/01/14 01:03:36;;;;;;;1999.90;999.90;;;3.80;99.90;;;;;;5072757;28;20479;-71
2022/01/14 01:06:04;;;;;;;1999.90;999.90;;;3.50;99.90;;;;;;5072130;28;20477;-72
2022/01/14 01:08:32;;;;;;;1999.90;999.90;;;3.20;99.90;;;;;;5078999;28;20440;-72
2022/01/14 01:11:03;;;;;;;1999.90;999.90;;;3.00;99.90;;;;;;5090448;28;20456;-71
2022/01/14 01:13:34;;;;;;;1999.90;999.90;;;3.00;99.90;;;;;;5081834;28;21160;-72
2022/01/14 01:16:01;;;;;;;1999.90;999.90;;;3.00;99.90;;;;;;5074241;28;20842;-71
2022/01/14 01:18:28;;;;;;;1999.90;999.90;;;2.90;99.90;;;;;;5091352;28;20444;-72
2022/01/14 01:20:55;;;;;;;1999.90;999.90;;;2.80;99.90;;;;;;5090743;28;20456;-71
2022/01/14 01:23:22;;;;;;;1999.90;999.90;;;2.70;99.90;;;;;;5092522;28;20917;-73
2022/01/14 01:25:54;;;;;;;1999.90;999.90;;;2.60;99.90;;;;;;5092524;28;20521;-69
2022/01/14 01:28:23;;;;;;;1999.90;999.90;;;2.50;99.90;;;;;;5062120;28;20481;-72
2022/01/14 01:30:57;;;;;;;1999.90;999.90;;;2.50;99.90;;;;;;5072390;28;20441;-73
2022/01/14 01:33:23;;;;;;;1999.90;999.90;;;2.40;99.90;;;;;;5072275;28;20446;-72
2022/01/14 01:35:50;;;;;;;1999.90;999.90;;;2.40;99.90;;;;;;5082572;28;20468;-71
2022/01/14 01:38:17;;;;;;;1999.90;999.90;;;2.40;99.90;;;;;;5092784;28;21023;-71
2022/01/14 01:40:46;;;;;;;1999.90;999.90;;;2.40;99.90;;;;;;5082799;28;20458;-71
2022/01/14 01:43:15;;;;;;;1999.90;999.90;;;2.40;99.90;;;;;;5072609;28;20457;-72
2022/01/14 01:45:44;;;;;;;1999.90;999.90;;;2.40;99.90;;;;;;5072789;28;20473;-71
2022/01/14 01:48:11;;;;;;;1999.90;999.90;;;2.30;99.90;;;;;;5071835;28;20485;-71
2022/01/14 01:50:38;;;;;;;1999.90;999.90;;;2.30;99.90;;;;;;5078985;28;20445;-72
2022/01/14 01:53:06;;;;;;;1999.90;999.90;;;2.20;99.90;;;;;;5092348;28;20448;-71
2022/01/14 01:55:33;;;;;;;1999.90;999.90;;;2.30;99.90;;;;;;5085590;28;20469;-73
2022/01/14 01:58:00;;;;;;;1999.90;999.90;;;2.20;99.90;;;;;;5071906;28;20441;-71
2022/01/14 02:00:28;;;;;;;1999.90;999.90;;;2.30;99.90;;;;;;5071963;28;20477;-73
2022/01/14 02:02:58;;;;;;;1999.90;999.90;;;2.20;99.90;;;;;;5072183;28;20863;-72
2022/01/14 02:05:25;;;;;;;1999.90;999.90;;;2.20;99.90;;;;;;5087153;28;20476;-71
2022/01/14 02:07:52;;;;;;;1999.90;999.90;;;2.30;99.90;;;;;;5088786;28;21050;-73
2022/01/14 02:10:19;;;;;;;1999.90;999.90;;;2.20;99.90;;;;;;5071877;28;20452;-71
2022/01/14 02:12:51;;;;;;;1999.90;999.90;;;2.20;99.90;;;;;;5072514;28;20485;-71
2022/01/14 02:15:46;;;;;;;1999.90;999.90;;;2.20;99.90;;;;;;5073111;28;20466;-71
2022/01/14 02:18:30;;;;;;;1999.90;999.90;;;2.20;99.90;;;;;;5072670;28;20895;-73
2022/01/14 02:23:47;;;;;;;1999.90;999.90;;;2.10;99.90;;;;;;5092564;28;20936;-71
2022/01/14 02:26:17;;;;;;;1999.90;999.90;;;2.00;99.90;;;;;;5086229;28;20851;-71
2022/01/14 02:28:44;;;;;;;1999.90;999.90;;;2.00;99.90;;;;;;5071217;28;20449;-72
2022/01/14 02:31:10;;;;;;;1999.90;999.90;;;2.00;99.90;;;;;;5071771;28;20492;-71
2022/01/14 02:33:37;;;;;;;1999.90;999.90;;;1.90;99.90;;;;;;5071934;28;20503;-71
2022/01/14 02:36:06;;;;;;;1999.90;999.90;;;1.90;99.90;;;;;;5074735;28;20524;-71
2022/01/14 02:38:33;;;;;;;1999.90;999.90;;;1.80;99.90;;;;;;5091993;28;20444;-72
2022/01/14 02:41:00;;;;;;;1999.90;999.90;;;1.70;99.90;;;;;;5075986;28;20868;-73
2022/01/14 02:43:27;;;;;;;1999.90;999.90;;;1.80;99.90;;;;;;5071527;28;20445;-72
2022/01/14 02:45:57;;;;;;;1999.90;999.90;;;1.70;99.90;;;;;;5085105;28;20475;-71
2022/01/14 02:48:25;;;;;;;1999.90;999.90;;;1.70;99.90;;;;;;5091341;28;21006;-71
2022/01/14 02:50:59;;;;;;;1999.90;999.90;;;1.70;99.90;;;;;;5077964;28;20822;-72
2022/01/14 02:53:41;;;;;;;1999.90;999.90;;;1.80;99.90;;;;;;5071360;28;20902;-71
2022/01/14 02:56:09;;;;;;;1999.90;999.90;;;1.80;99.90;;;;;;5086087;28;20487;-72
2022/01/14 02:58:38;;;;;;;1999.90;999.90;;;1.70;99.90;;;;;;5074657;28;20448;-71
2022/01/14 03:01:07;;;;;;;1999.90;999.90;;;1.70;99.90;;;;;;5085360;28;20449;-71
2022/01/14 03:03:34;;;;;;;1999.90;999.90;;;1.70;99.90;;;;;;5075083;28;20884;-72
2022/01/14 03:06:02;;;;;;;1999.90;999.90;;;1.80;99.90;;;;;;5084631;28;20472;-71
2022/01/14 03:08:30;;;;;;;1999.90;999.90;;;1.70;99.90;;;;;;5095590;28;20476;-71
2022/01/14 03:11:00;;;;;;;1999.90;999.90;;;1.70;99.90;;;;;;5082882;28;20449;-71
2022/01/14 03:13:27;;;;;;;1999.90;999.90;;;1.70;99.90;;;;;;5074348;28;20949;-71
2022/01/14 03:15:54;;;;;;;1999.90;999.90;;;1.70;99.90;;;;;;5075345;28;20469;-71
2022/01/14 03:18:30;;;;;;;1999.90;999.90;;;1.70;99.90;;;;;;5074931;28;20539;-71
2022/01/14 03:21:09;;;;;;;1999.90;999.90;;;1.70;99.90;;;;;;5084927;28;20479;-72
2022/01/14 03:23:43;;;;;;;1999.90;999.90;;;1.70;99.90;;;;;;5095336;28;20480;-71
2022/01/14 03:26:10;;;;;;;1999.90;999.90;;;1.80;99.90;;;;;;5080043;28;20473;-71
2022/01/14 03:28:37;;;;;;;1999.90;999.90;;;1.80;99.90;;;;;;5074742;28;20489;-71
2022/01/14 03:31:03;;;;;;;1999.90;999.90;;;1.80;99.90;;;;;;5075105;28;20445;-71
2022/01/14 03:33:30;;;;;;;1999.90;999.90;;;1.80;99.90;;;;;;5074711;28;20441;-72
2022/01/14 03:35:57;;;;;;;1999.90;999.90;;;1.80;99.90;;;;;;5085869;28;20493;-71
2022/01/14 03:38:23;;;;;;;1999.90;999.90;;;1.80;99.90;;;;;;5094600;28;20440;-71
2022/01/14 03:40:52;;;;;;;1999.90;999.90;;;2.00;99.90;;;;;;5057867;28;20453;-71
2022/01/14 03:43:19;;;;;;;1999.90;999.90;;;2.00;99.90;;;;;;5074269;28;20950;-73
2022/01/14 03:45:48;;;;;;;1999.90;999.90;;;1.90;99.90;;;;;;5093312;28;20477;-72
2022/01/14 03:48:15;;;;;;;1999.90;999.90;;;1.90;99.90;;;;;;5094417;28;20910;-72
2022/01/14 03:50:42;;;;;;;1999.90;999.90;;;1.80;99.90;;;;;;5079651;28;20484;-71
2022/01/14 03:53:11;;;;;;;1999.90;999.90;;;1.80;99.90;;;;;;5074578;28;20449;-71
2022/01/14 03:55:38;;;;;;;1999.90;999.90;;;1.80;99.90;;;;;;5073919;28;20473;-71
2022/01/14 03:58:06;;;;;;;1999.90;999.90;;;1.80;99.90;;;;;;5074529;28;20449;-71
2022/01/14 04:00:33;;;;;;;1999.90;999.90;;;1.80;99.90;;;;;;5074315;28;20468;-71
2022/01/14 04:03:00;;;;;;;1999.90;999.90;;;1.90;99.90;;;;;;5079433;28;21001;-71
2022/01/14 04:05:27;;;;;;;1999.90;999.90;;;1.90;99.90;;;;;;5094019;28;20881;-71
2022/01/14 04:07:53;;;;;;;1999.90;999.90;;;1.90;99.90;;;;;;5081140;28;20484;-71
2022/01/14 04:10:21;;;;;;;1999.90;999.90;;;2.00;99.90;;;;;;5073668;28;20499;-71
2022/01/14 04:12:52;;;;;;;1999.90;999.90;;;2.00;99.90;;;;;;5073901;28;20559;-71
2022/01/14 04:15:42;;;;;;;1999.90;999.90;;;2.10;99.90;;;;;;5074130;28;20493;-71
2022/01/14 04:18:13;;;;;;;1999.90;999.90;;;2.10;99.90;;;;;;5087119;28;20433;-71
2022/01/14 04:20:41;;;;;;;1999.90;999.90;;;2.00;99.90;;;;;;5093808;28;20883;-73
2022/01/14 04:23:09;;;;;;;1999.90;999.90;;;2.10;99.90;;;;;;5083777;28;20450;-72
2022/01/14 04:25:36;;;;;;;1999.90;999.90;;;2.10;99.90;;;;;;5082867;28;20470;-71
2022/01/14 04:28:04;;;;;;;1999.90;999.90;;;2.10;99.90;;;;;;5089804;28;20480;-71
2022/01/14 04:30:32;;;;;;;1999.90;999.90;;;2.10;99.90;;;;;;5094003;28;20452;-71
2022/01/14 04:32:59;;;;;;;1999.90;999.90;;;2.10;99.90;;;;;;5078031;28;20446;-71
2022/01/14 04:35:26;;;;;;;1999.90;999.90;;;2.10;99.90;;;;;;5073447;28;20996;-71
2022/01/14 04:37:53;;;;;;;1999.90;999.90;;;2.10;99.90;;;;;;5087636;28;20461;-71
2022/01/14 04:40:20;;;;;;;1999.90;999.90;;;2.10;99.90;;;;;;5093725;28;20440;-71
2022/01/14 04:42:47;;;;;;;1999.90;999.90;;;2.10;99.90;;;;;;5087701;28;20444;-71
2022/01/14 04:45:28;;;;;;;1999.90;999.90;;;2.10;99.90;;;;;;5093357;28;20988;-71
2022/01/14 04:47:57;;;;;;;1999.90;999.90;;;2.20;99.90;;;;;;5079900;28;20814;-71
2022/01/14 04:50:25;;;;;;;1999.90;999.90;;;2.20;99.90;;;;;;5074524;28;20453;-72
2022/01/14 04:52:52;;;;;;;1999.90;999.90;;;2.30;99.90;;;;;;5073941;28;20454;-71
2022/01/14 04:55:20;;;;;;;1999.90;999.90;;;2.30;99.90;;;;;;5074119;28;20465;-70
2022/01/14 04:57:47;;;;;;;1999.90;999.90;;;2.30;99.90;;;;;;5072959;28;20441;-70
2022/01/14 05:00:16;;;;;;;1999.90;999.90;;;2.30;99.90;;;;;;5075821;28;20445;-70
2022/01/14 05:02:42;;;;;;;1999.90;999.90;;;2.40;99.90;;;;;;5093342;28;20452;-71
2022/01/14 05:05:11;;;;;;;1999.90;999.90;;;2.40;99.90;;;;;;5089748;28;20488;-71
2022/01/14 05:07:38;;;;;;;1999.90;999.90;;;2.40;99.90;;;;;;5072606;28;20539;-71
2022/01/14 05:10:20;;;;;;;1999.90;999.90;;;2.40;99.90;;;;;;5081972;28;20864;-73
2022/01/14 05:12:47;;;;;;;1999.90;999.90;;;2.50;99.90;;;;;;5073784;28;20814;-72
2022/01/14 05:15:15;;;;;;;1999.90;999.90;;;2.50;99.90;;;;;;5074224;28;20465;-71
2022/01/14 05:17:42;;;;;;;1999.90;999.90;;;2.50;99.90;;;;;;5073746;28;20437;-71
2022/01/14 05:20:11;;;;;;;1999.90;999.90;;;2.60;99.90;;;;;;5085824;28;20457;-71
2022/01/14 05:22:38;;;;;;;1999.90;999.90;;;2.70;99.90;;;;;;5094316;28;20478;-71
2022/01/14 05:25:06;;;;;;;1999.90;999.90;;;2.80;99.90;;;;;;5082547;28;20885;-70
2022/01/14 05:27:32;;;;;;;1999.90;999.90;;;2.80;99.90;;;;;;5073725;28;20945;-73
2022/01/14 05:29:59;;;;;;;1999.90;999.90;;;2.90;99.90;;;;;;5073970;28;20868;-72
2022/01/14 05:32:27;;;;;;;1999.90;999.90;;;2.90;99.90;;;;;;5074759;28;20796;-71
2022/01/14 05:34:54;;;;;;;1999.90;999.90;;;3.00;99.90;;;;;;5092910;28;20469;-71
2022/01/14 05:37:22;;;;;;;1999.90;999.90;;;3.10;99.90;;;;;;5093474;28;20490;-71
2022/01/14 05:39:48;;;;;;;1999.90;999.90;;;3.10;99.90;;;;;;5074839;28;20825;-71
2022/01/14 05:42:15;;;;;;;1999.90;999.90;;;3.10;99.90;;;;;;5073594;28;20522;-71
2022/01/14 05:44:42;;;;;;;1999.90;999.90;;;3.20;99.90;;;;;;5089639;28;20479;-73
2022/01/14 05:47:09;;;;;;;1999.90;999.90;;;3.20;99.90;;;;;;5092700;28;20449;-72
2022/01/14 05:49:36;;;;;;;1999.90;999.90;;;3.20;99.90;;;;;;5076921;28;20897;-71
2022/01/14 05:52:03;;;;;;;1999.90;999.90;;;3.30;99.90;;;;;;5071753;28;20445;-73
2022/01/14 05:54:31;;;;;;;1999.90;999.90;;;3.30;99.90;;;;;;5077999;28;20453;-72
2022/01/14 05:56:57;;;;;;;1999.90;999.90;;;3.30;99.90;;;;;;5073086;28;20491;-71
2022/01/14 05:59:24;;;;;;;1999.90;999.90;;;3.40;99.90;;;;;;5073433;28;20445;-71
2022/01/14 06:01:51;;;;;;;1999.90;999.90;;;3.40;99.90;;;;;;5076546;28;20453;-71
2022/01/14 06:04:17;;;;;;;1999.90;999.90;;;3.40;99.90;;;;;;5092342;28;20497;-73
2022/01/14 06:06:44;;;;;;;1999.90;999.90;;;3.40;99.90;;;;;;5080892;28;20453;-69
2022/01/14 06:09:10;;;;;;;1999.90;999.90;;;3.40;99.90;;;;;;5071466;28;20890;-70
2022/01/14 06:11:38;;;;;;;1999.90;999.90;;;3.40;99.90;;;;;;5072061;28;20514;-71
2022/01/14 06:14:05;;;;;;;1999.90;999.90;;;3.50;99.90;;;;;;5071984;28;20446;-71
2022/01/14 06:16:32;;;;;;;1999.90;999.90;;;3.50;99.90;;;;;;5080468;28;20460;-71
2022/01/14 06:18:58;;;;;;;1999.90;999.90;;;3.50;99.90;;;;;;5092140;28;21009;-73
2022/01/14 06:21:25;;;;;;;1999.90;999.90;;;3.50;99.90;;;;;;5090311;28;20441;-71
2022/01/14 06:23:52;;;;;;;1999.90;999.90;;;3.60;99.90;;;;;;5082833;28;20450;-71
2022/01/14 06:26:18;;;;;;;1999.90;999.90;;;3.60;99.90;;;;;;5080263;28;20471;-71
2022/01/14 06:28:46;;;;;;;1999.90;999.90;;;3.50;99.90;;;;;;5092446;28;20538;-71
2022/01/14 06:31:14;;;;;;;1999.90;999.90;;;3.50;99.90;;;;;;5085128;28;20945;-70
2022/01/14 06:33:41;;;;;;;1999.90;999.90;;;3.50;99.90;;;;;;5071454;28;20441;-72
2022/01/14 06:36:08;;;;;;;1999.90;999.90;;;3.50;99.90;;;;;;5071033;28;21004;-73
2022/01/14 06:38:34;;;;;;;1999.90;999.90;;;3.50;99.90;;;;;;5074897;28;20510;-71
2022/01/14 06:41:02;;;;;;;1999.90;999.90;;;3.40;99.90;;;;;;5078891;28;20950;-72
2022/01/14 06:43:28;;;;;;;1999.90;999.90;;;3.40;99.90;;;;;;5095099;28;20448;-72
2022/01/14 06:45:56;;;;;;;1999.90;999.90;;;3.40;99.90;;;;;;5077009;28;20518;-71
2022/01/14 06:48:24;;;;;;;1999.90;999.90;;;3.40;99.90;;;;;;5074147;28;21037;-72
2022/01/14 06:50:51;;;;;;;1999.90;999.90;;;3.30;99.90;;;;;;5090292;28;21025;-71
2022/01/14 06:53:17;;;;;;;1999.90;999.90;;;3.30;99.90;;;;;;5080998;28;20449;-71
2022/01/14 06:55:44;;;;;;;1999.90;999.90;;;3.30;99.90;;;;;;5089719;28;20545;-72
2022/01/14 06:58:11;;;;;;;1999.90;999.90;;;3.40;99.90;;;;;;5095234;28;20993;-71
2022/01/14 07:00:37;;;;;;;1999.90;999.90;;;3.30;99.90;;;;;;5082075;28;20457;-71
2022/01/14 07:03:05;;;;;;;1999.90;999.90;;;3.30;99.90;;;;;;5075415;28;20449;-71
2022/01/14 07:05:32;;;;;;;1999.90;999.90;;;3.40;99.90;;;;;;5086284;28;21075;-73
2022/01/14 07:07:59;;;;;;;1999.90;999.90;;;3.30;99.90;;;;;;5086712;28;20448;-71
2022/01/14 07:10:26;;;;;;;1999.90;999.90;;;3.30;99.90;;;;;;5077116;28;20861;-71
2022/01/14 07:12:53;;;;;;;1999.90;999.90;;;3.30;99.90;;;;;;5089633;28;20441;-72
2022/01/14 07:15:21;;;;;;;1999.90;999.90;;;3.30;99.90;;;;;;5075783;28;20465;-71
2022/01/14 07:17:48;;;;;;;1999.90;999.90;;;3.30;99.90;;;;;;5077987;28;20464;-70
2022/01/14 07:20:18;;;;;;;1999.90;999.90;;;3.30;99.90;;;;;;5095309;28;20928;-71
2022/01/14 07:22:47;;;;;;;1999.90;999.90;;;3.30;99.90;;;;;;5079555;28;21006;-70
2022/01/14 07:25:14;;;;;;;1999.90;999.90;;;3.40;99.90;;;;;;5095814;28;20555;-72
2022/01/14 07:27:41;;;;;;;1999.90;999.90;;;3.30;99.90;;;;;;5071600;28;20461;-71
2022/01/14 07:30:09;;;;;;;1999.90;999.90;;;3.30;99.90;;;;;;5068679;28;21044;-71
2022/01/14 07:32:36;;;;;;;1999.90;999.90;;;3.30;99.90;;;;;;5075794;28;21004;-71
2022/01/14 07:35:03;;;;;;;1999.90;999.90;;;3.30;99.90;;;;;;5076070;28;20476;-72
2022/01/14 07:37:31;;;;;;;1999.90;999.90;;;3.30;99.90;;;;;;5076271;28;20453;-71
2022/01/14 07:39:58;;;;;;;1999.90;999.90;;;3.30;99.90;;;;;;5075508;28;20450;-70
2022/01/14 07:42:24;;;;;;;1999.90;999.90;;;3.30;99.90;;;;;;5055724;28;20496;-70
2022/01/14 07:44:51;;;;;;;1999.90;999.90;;;3.30;99.90;;;;;;5092646;28;20476;-71
2022/01/14 07:47:18;;;;;;;1999.90;999.90;;;3.30;99.90;;;;;;5076728;28;20454;-71
2022/01/14 07:49:45;;;;;;;1999.90;999.90;;;3.40;99.90;;;;;;5075770;28;20477;-71
2022/01/14 07:52:11;;;;;;;1999.90;999.90;;;3.60;99.90;;;;;;5086589;28;20453;-71
2022/01/14 07:54:39;;;;;;;1999.90;999.90;;;3.70;99.90;;;;;;5075568;28;20461;-71
2022/01/14 07:57:08;;;;;;;1999.90;999.90;;;3.80;99.90;;;;;;5076056;28;20507;-71
2022/01/14 07:59:36;;;;;;;1999.90;999.90;;;3.80;99.90;;;;;;5079162;28;20449;-71
2022/01/14 08:02:03;;;;;;;1999.90;999.90;;;3.90;99.90;;;;;;5074674;28;20511;-71
2022/01/14 08:04:32;;;;;;;1999.90;999.90;;;4.00;99.90;;;;;;5087967;28;20513;-72
2022/01/14 08:07:08;;;;;;;1999.90;999.90;;;4.00;99.90;;;;;;5082037;28;20452;-71
2022/01/14 08:09:36;;;;;;;1999.90;999.90;;;4.10;99.90;;;;;;5088222;28;20472;-71
2022/01/14 08:12:05;;;;;;;1999.90;999.90;;;4.20;99.90;;;;;;5089525;28;20449;-71
2022/01/14 08:14:32;;;;;;;1999.90;999.90;;;4.20;99.90;;;;;;5073797;28;20445;-71
2022/01/14 08:16:58;;;;;;;1999.90;999.90;;;4.30;99.90;;;;;;5083686;28;20514;-71
2022/01/14 08:19:25;;;;;;;1999.90;999.90;;;4.40;99.90;;;;;;5094272;28;20494;-71
2022/01/14 08:21:52;;;;;;;1999.90;999.90;;;4.40;99.90;;;;;;5085001;28;20871;-72
2022/01/14 08:24:18;;;;;;;1999.90;999.90;;;4.40;99.90;;;;;;5073804;28;20503;-71
2022/01/14 08:26:45;;;;;;;1999.90;999.90;;;4.50;99.90;;;;;;5074344;28;20458;-71
2022/01/14 08:29:13;;;;;;;1999.90;999.90;;;4.50;99.90;;;;;;5077391;28;20978;-71
2022/01/14 08:31:40;;;;;;;1999.90;999.90;;;4.40;99.90;;;;;;5073119;28;20450;-71
2022/01/14 08:34:06;;;;;;;1999.90;999.90;;;4.40;99.90;;;;;;5078187;28;20505;-73
2022/01/14 08:36:33;;;;;;;1999.90;999.90;;;4.40;99.90;;;;;;5071102;28;21006;-71
2022/01/14 08:39:00;;;;;;;1999.90;999.90;;;4.40;99.90;;;;;;5068509;28;20486;-71
2022/01/14 08:41:29;;;;;;;1999.90;999.90;;;4.40;99.90;;;;;;5072573;28;20930;-71
2022/01/14 08:43:56;;;;;;;1999.90;999.90;;;4.40;99.90;;;;;;5065021;28;20452;-72
2022/01/14 08:46:24;;;;;;;1999.90;999.90;;;4.40;99.90;;;;;;5073216;28;20519;-72
2022/01/14 08:48:50;;;;;;;1999.90;999.90;;;4.40;99.90;;;;;;5074543;28;20527;-71
2022/01/14 08:51:18;;;;;;;1999.90;999.90;;;4.50;99.90;;;;;;5075318;28;20495;-71
2022/01/14 08:53:44;;;;;;;1999.90;999.90;;;4.40;99.90;;;;;;5074530;28;20449;-71
2022/01/14 08:56:11;;;;;;;1999.90;999.90;;;4.40;99.90;;;;;;5072811;28;20511;-71
2022/01/14 08:58:39;;;;;;;1999.90;999.90;;;4.40;99.90;;;;;;5073037;28;20445;-71
2022/01/14 09:01:06;;;;;;;1999.90;999.90;;;4.40;99.90;;;;;;5072907;28;20453;-71
2022/01/14 09:03:33;;;;;;;1999.90;999.90;;;4.40;99.90;;;;;;5079708;28;20450;-71
2022/01/14 09:06:00;;;;;;;1999.90;999.90;;;4.40;99.90;;;;;;5072437;28;20507;-71
2022/01/14 09:08:27;;;;;;;1999.90;999.90;;;4.40;99.90;;;;;;5079149;28;20868;-74
2022/01/14 09:10:54;;;;;;;1999.90;999.90;;;4.40;99.90;;;;;;5080154;28;20448;-72
2022/01/14 09:13:20;;;;;;;1999.90;999.90;;;4.40;99.90;;;;;;5092885;28;20453;-71
2022/01/14 09:15:47;;;;;;;1999.90;999.90;;;4.40;99.90;;;;;;5092802;28;20496;-71
2022/01/14 09:18:14;;;;;;;1999.90;999.90;;;4.40;99.90;;;;;;5088276;28;20502;-72
2022/01/14 09:20:42;;;;;;;1999.90;999.90;;;4.40;99.90;;;;;;5093015;28;20486;-71
2022/01/14 09:23:15;;;;;;;1999.90;999.90;;;4.50;99.90;;;;;;5093012;28;20499;-71
2022/01/14 09:25:42;;;;;;;1999.90;999.90;;;4.50;99.90;;;;;;5093105;28;20520;-71
2022/01/14 09:28:09;;;;;;;1999.90;999.90;;;4.50;99.90;;;;;;5092644;28;20490;-71
2022/01/14 09:30:35;;;;;;;1999.90;999.90;;;4.60;99.90;;;;;;5092680;28;20533;-71
2022/01/14 09:33:02;;;;;;;1999.90;999.90;;;4.60;99.90;;;;;;5077648;28;20445;-71
2022/01/14 09:35:29;;;;;;;1999.90;999.90;;;4.40;99.90;;;;;;5072284;28;20464;-73
2022/01/14 09:37:57;;;;;;;1999.90;999.90;;;4.50;99.90;;;;;;5072156;28;20449;-71
2022/01/14 09:40:23;;;;;;;1999.90;999.90;;;4.60;99.90;;;;;;5072246;28;20688;-71
2022/01/14 09:42:52;;;;;;;1999.90;999.90;;;4.70;99.90;;;;;;5072095;28;20445;-71
2022/01/14 09:45:20;;;;;;;1999.90;999.90;;;4.70;99.90;;;;;;5072096;28;20891;-71
2022/01/14 09:47:49;;;;;;;1999.90;999.90;;;4.70;99.90;;;;;;5075041;28;20446;-71
2022/01/14 09:50:16;;;;;;;1999.90;999.90;;;4.70;99.90;;;;;;5072046;28;20477;-71
2022/01/14 09:52:42;;;;;;;1999.90;999.90;;;4.80;99.90;;;;;;5072511;28;20449;-72
2022/01/14 09:55:11;;;;;;;1999.90;999.90;;;4.80;99.90;;;;;;5072298;28;20469;-71
2022/01/14 09:57:37;;;;;;;1999.90;999.90;;;4.80;99.90;;;;;;5072126;28;20446;-72
2022/01/14 10:00:06;;;;;;;1999.90;999.90;;;4.80;99.90;;;;;;5072266;28;20953;-71
2022/01/14 10:02:35;;;;;;;1999.90;999.90;;;4.90;99.90;;;;;;5056997;28;20538;-73
2022/01/14 10:05:03;;;;;;;1999.90;999.90;;;4.90;99.90;;;;;;5071715;28;20579;-71
2022/01/14 10:07:31;;;;;;;1999.90;999.90;;;5.00;99.90;;;;;;5078579;28;20445;-71
2022/01/14 10:10:00;;;;;;;1999.90;999.90;;;5.00;99.90;;;;;;5073017;28;20530;-73
2022/01/14 10:12:32;;;;;;;1999.90;999.90;;;5.00;99.90;;;;;;5071815;28;20449;-71
2022/01/14 10:15:02;;;;;;;1999.90;999.90;;;5.10;99.90;;;;;;5078364;28;20465;-71
2022/01/14 10:17:36;;;;;;;1999.90;999.90;;;5.10;99.90;;;;;;5071630;28;20483;-71
2022/01/14 10:20:04;;;;;;;1999.90;999.90;;;5.20;99.90;;;;;;5071610;28;20555;-71
2022/01/14 10:22:33;;;;;;;1999.90;999.90;;;5.20;99.90;;;;;;5072249;28;20446;-71
2022/01/14 10:25:02;;;;;;;1999.90;999.90;;;5.20;99.90;;;;;;5083175;28;20882;-71
2022/01/14 10:27:38;;;;;;;1999.90;999.90;;;5.20;99.90;;;;;;5091932;28;20479;-71
2022/01/14 10:30:10;;;;;;;1999.90;999.90;;;5.30;99.90;;;;;;5083398;28;20476;-71
2022/01/14 10:32:38;;;;;;;1999.90;999.90;;;5.40;99.90;;;;;;5073160;28;20524;-71
2022/01/14 10:35:06;;;;;;;1999.90;999.90;;;5.50;99.90;;;;;;5074024;28;20859;-71
2022/01/14 10:37:34;;;;;;;1999.90;999.90;;;5.60;99.90;;;;;;5073637;28;20507;-71
2022/01/14 10:40:01;;;;;;;1999.90;999.90;;;5.70;99.90;;;;;;5072642;28;20873;-70
2022/01/14 10:42:30;;;;;;;1999.90;999.90;;;5.70;99.90;;;;;;5072655;28;20945;-71
2022/01/14 10:45:18;;;;;;;1999.90;999.90;;;5.70;99.90;;;;;;5084614;28;20497;-71
2022/01/14 10:47:55;;;;;;;1999.90;999.90;;;5.80;99.90;;;;;;5084372;28;20456;-71
2022/01/14 10:50:32;;;;;;;1999.90;999.90;;;5.70;99.90;;;;;;5086512;28;20506;-71
2022/01/14 10:52:59;;;;;;;1999.90;999.90;;;5.80;99.90;;;;;;5092514;28;20527;-71
2022/01/14 10:55:32;;;;;;;1999.90;999.90;;;5.90;99.90;;;;;;5092530;28;20465;-70
2022/01/14 10:58:01;;;;;;;1999.90;999.90;;;5.90;99.90;;;;;;5093005;28;20933;-73
2022/01/14 11:00:39;;;;;;;1999.90;999.90;;;6.00;99.90;;;;;;5090454;28;20453;-71
2022/01/14 11:03:05;;;;;;;1999.90;999.90;;;6.00;99.90;;;;;;5092445;28;20445;-71
2022/01/14 11:05:33;;;;;;;1999.90;999.90;;;6.00;99.90;;;;;;5093215;28;20526;-71
2022/01/14 11:08:00;;;;;;;1999.90;999.90;;;5.90;99.90;;;;;;5093936;28;20449;-72
2022/01/14 11:10:29;;;;;;;1999.90;999.90;;;6.00;99.90;;;;;;5093313;28;20476;-71
2022/01/14 11:12:57;;;;;;;1999.90;999.90;;;6.10;99.90;;;;;;5091678;28;20547;-71
2022/01/14 11:15:25;;;;;;;1999.90;999.90;;;6.10;99.90;;;;;;5075099;28;20492;-72
2022/01/14 11:17:56;;;;;;;1999.90;999.90;;;6.20;99.90;;;;;;5074889;28;20459;-72
2022/01/14 11:20:28;;;;;;;1999.90;999.90;;;6.30;99.90;;;;;;5072550;28;20449;-71
2022/01/14 11:25:44;;;;;;;1999.90;999.90;;;6.20;99.90;;;;;;5072754;28;20960;-71
2022/01/14 11:28:14;;;;;;;1999.90;999.90;;;6.10;99.90;;;;;;5082133;28;20444;-71
2022/01/14 11:30:41;;;;;;;1999.90;999.90;;;6.10;99.90;;;;;;5095240;28;20545;-71
2022/01/14 11:33:10;;;;;;;1999.90;999.90;;;6.10;99.90;;;;;;5095855;28;20873;-72
2022/01/14 11:35:39;;;;;;;1999.90;999.90;;;6.00;99.90;;;;;;5095582;28;21012;-71
2022/01/14 11:38:35;;;;;;;1999.90;999.90;;;6.00;99.90;;;;;;5096464;28;20459;-71
2022/01/14 11:41:01;;;;;;;1999.90;999.90;;;6.10;99.90;;;;;;5097076;28;20455;-71
2022/01/14 11:43:43;;;;;;;1999.90;999.90;;;6.10;99.90;;;;;;5081651;28;20503;-71
2022/01/14 11:46:12;;;;;;;1999.90;999.90;;;6.10;99.90;;;;;;5077543;28;20534;-71
2022/01/14 11:48:46;;;;;;;1999.90;999.90;;;6.10;99.90;;;;;;5078526;28;20445;-72
2022/01/14 11:51:14;;;;;;;1999.90;999.90;;;6.10;99.90;;;;;;5076898;28;20497;-72
2022/01/14 11:53:48;;;;;;;1999.90;999.90;;;6.20;99.90;;;;;;5076349;28;20453;-71
2022/01/14 11:56:47;;;;;;;1999.90;999.90;;;6.10;99.90;;;;;;5076138;28;20572;-71
2022/01/14 11:59:45;;;;;;;1999.90;999.90;;;6.20;99.90;;;;;;5055294;28;20850;-71
2022/01/14 12:02:38;;;;;;;1999.90;999.90;;;6.20;99.90;;;;;;5057778;28;20462;-72
2022/01/14 12:05:13;;;;;;;1999.90;999.90;;;6.30;99.90;;;;;;5072374;28;20984;-72
2022/01/14 12:08:10;;;;;;;1999.90;999.90;;;6.40;99.90;;;;;;5098803;28;20436;-72
2022/01/14 12:10:39;;;;;;;1999.90;999.90;;;6.40;99.90;;;;;;5086633;28;20473;-71
2022/01/14 12:13:38;;;;;;;1999.90;999.90;;;6.50;99.90;;;;;;5076217;28;20453;-71
2022/01/14 12:16:09;;;;;;;1999.90;999.90;;;6.40;99.90;;;;;;5055429;28;21141;-71
2022/01/14 12:19:05;;;;;;;1999.90;999.90;;;6.50;99.90;;;;;;5060745;28;20492;-72
2022/01/14 12:22:02;;;;;;;1999.90;999.90;;;6.40;99.90;;;;;;5096402;28;20476;-71
2022/01/14 12:24:36;;;;;;;1999.90;999.90;;;6.40;99.90;;;;;;5085737;28;20454;-71
2022/01/14 12:27:28;;;;;;;1999.90;999.90;;;6.50;99.90;;;;;;5089505;28;20448;-71
2022/01/14 12:30:05;;;;;;;1999.90;999.90;;;6.50;99.90;;;;;;5097782;28;20469;-71
2022/01/14 12:32:37;;;;;;;1999.90;999.90;;;6.60;99.90;;;;;;5096674;28;20440;-71
2022/01/14 12:35:12;;;;;;;1999.90;999.90;;;6.50;99.90;;;;;;5095680;28;20464;-71